createdAt,value
2019-02-20T00:01:49.000Z,100806
2019-02-20T00:03:04.000Z,100804
2019-02-20T00:04:04.000Z,100799
2019-02-20T00:06:04.000Z,100800
2019-02-20T00:07:04.000Z,100804
2019-02-20T00:08:49.000Z,100803
2019-02-20T00:10:04.000Z,100806
2019-02-20T00:11:34.000Z,100800
2019-02-20T00:13:04.000Z,100802
2019-02-20T00:14:04.000Z,100800
2019-02-20T00:16:04.000Z,100798
2019-02-20T00:18:04.000Z,100799
2019-02-20T00:19:49.000Z,100797
2019-02-20T00:21:04.000Z,100791
2019-02-20T00:22:04.000Z,100794
2019-02-20T00:24:04.000Z,100791
2019-02-20T00:25:04.000Z,100793
2019-02-20T00:27:05.000Z,100803
2019-02-20T00:28:05.000Z,100805
2019-02-20T00:30:05.000Z,100806
2019-02-20T00:32:05.000Z,100803
2019-02-20T00:33:50.000Z,100798
2019-02-20T00:35:05.000Z,100798
2019-02-20T00:36:05.000Z,100792
2019-02-20T00:38:05.000Z,100803
2019-02-20T00:39:50.000Z,100808
2019-02-20T00:41:05.000Z,100808
2019-02-20T00:43:05.000Z,100813
2019-02-20T00:45:05.000Z,100814
2019-02-20T00:47:05.000Z,100813
2019-02-20T00:49:05.000Z,100816
2019-02-20T00:51:05.000Z,100817
2019-02-20T00:53:05.000Z,100820
2019-02-20T00:54:05.000Z,100823
2019-02-20T00:56:05.000Z,100825
2019-02-20T00:57:50.000Z,100829
2019-02-20T00:59:05.000Z,100821
2019-02-20T01:01:05.000Z,100823
2019-02-20T01:03:05.000Z,100819
2019-02-20T01:05:05.000Z,100824
2019-02-20T01:07:05.000Z,100821
2019-02-20T01:08:05.000Z,100821
2019-02-20T01:10:05.000Z,100811
2019-02-20T01:11:05.000Z,100815
2019-02-20T01:13:05.000Z,100815
2019-02-20T01:15:05.000Z,100812
2019-02-20T01:17:05.000Z,100812
2019-02-20T01:18:05.000Z,100808
2019-02-20T01:20:05.000Z,100814
2019-02-20T01:21:05.000Z,100812
2019-02-20T01:22:50.000Z,100811
2019-02-20T01:25:05.000Z,100821
2019-02-20T01:27:05.000Z,100811
2019-02-20T01:29:05.000Z,100813
2019-02-20T01:30:05.000Z,100811
2019-02-20T01:31:04.000Z,100811
2019-02-20T01:33:04.000Z,100809
2019-02-20T01:35:04.000Z,100806
2019-02-20T01:36:04.000Z,100805
2019-02-20T01:38:04.000Z,100813
2019-02-20T01:40:04.000Z,100806
2019-02-20T01:41:49.000Z,100818
2019-02-20T01:43:04.000Z,100814
2019-02-20T01:45:04.000Z,100814
2019-02-20T01:47:04.000Z,100813
2019-02-20T01:49:04.000Z,100828
2019-02-20T01:51:04.000Z,100820
2019-02-20T01:52:49.000Z,100817
2019-02-20T01:54:04.000Z,100817
2019-02-20T01:56:04.000Z,100810
2019-02-20T01:57:05.000Z,100813
2019-02-20T01:59:04.000Z,100817
2019-02-20T02:01:05.000Z,100819
2019-02-20T02:03:04.000Z,100816
2019-02-20T02:05:04.000Z,100815
2019-02-20T02:07:04.000Z,100816
2019-02-20T02:09:05.000Z,100820
2019-02-20T02:10:49.000Z,100819
2019-02-20T02:12:04.000Z,100816
2019-02-20T02:14:04.000Z,100816
2019-02-20T02:15:49.000Z,100813
2019-02-20T02:18:04.000Z,100809
2019-02-20T02:19:04.000Z,100814
2019-02-20T02:21:04.000Z,100805
2019-02-20T02:23:04.000Z,100807
2019-02-20T02:24:04.000Z,100803
2019-02-20T02:26:04.000Z,100803
2019-02-20T02:28:04.000Z,100808
2019-02-20T02:29:04.000Z,100805
2019-02-20T02:30:04.000Z,100808
2019-02-20T02:32:04.000Z,100805
2019-02-20T02:33:04.000Z,100806
2019-02-20T02:35:05.000Z,100805
2019-02-20T02:36:05.000Z,100806
2019-02-20T02:38:05.000Z,100809
2019-02-20T02:40:05.000Z,100814
2019-02-20T02:42:05.000Z,100809
2019-02-20T02:43:50.000Z,100806
2019-02-20T02:45:05.000Z,100809
2019-02-20T02:46:05.000Z,100810
2019-02-20T02:48:05.000Z,100807
2019-02-20T02:49:50.000Z,100803
2019-02-20T02:51:05.000Z,100800
2019-02-20T02:52:50.000Z,100802
2019-02-20T02:54:05.000Z,100801
2019-02-20T02:56:05.000Z,100794
2019-02-20T02:57:50.000Z,100793
2019-02-20T02:59:05.000Z,100796
2019-02-20T03:01:05.000Z,100793
2019-02-20T03:03:05.000Z,100795
2019-02-20T03:04:05.000Z,100796
2019-02-20T03:06:05.000Z,100796
2019-02-20T03:07:05.000Z,100800
2019-02-20T03:09:05.000Z,100800
2019-02-20T03:10:05.000Z,100802
2019-02-20T03:11:05.000Z,100803
2019-02-20T03:13:05.000Z,100795
2019-02-20T03:15:05.000Z,100805
2019-02-20T03:16:05.000Z,100799
2019-02-20T03:17:05.000Z,100796
2019-02-20T03:19:05.000Z,100793
2019-02-20T03:21:05.000Z,100800
2019-02-20T03:22:50.000Z,100799
2019-02-20T03:25:05.000Z,100801
2019-02-20T03:26:05.000Z,100801
2019-02-20T03:28:05.000Z,100799
2019-02-20T03:30:05.000Z,100799
2019-02-20T03:32:05.000Z,100804
2019-02-20T03:33:50.000Z,100809
2019-02-20T03:34:50.000Z,100802
2019-02-20T03:36:05.000Z,100813
2019-02-20T03:38:05.000Z,100813
2019-02-20T03:40:05.000Z,100818
2019-02-20T03:41:05.000Z,100816
2019-02-20T03:43:05.000Z,100816
2019-02-20T03:45:05.000Z,100814
2019-02-20T03:47:05.000Z,100808
2019-02-20T03:49:05.000Z,100805
2019-02-20T03:51:05.000Z,100803
2019-02-20T03:53:05.000Z,100802
2019-02-20T03:54:49.000Z,100810
2019-02-20T03:55:49.000Z,100808
2019-02-20T03:57:05.000Z,100815
2019-02-20T03:59:05.000Z,100815
2019-02-20T04:01:05.000Z,100809
2019-02-20T04:03:05.000Z,100809
2019-02-20T04:05:05.000Z,100817
2019-02-20T04:07:05.000Z,100816
2019-02-20T04:08:50.000Z,100812
2019-02-20T04:11:05.000Z,100813
2019-02-20T04:13:05.000Z,100805
2019-02-20T04:14:49.000Z,100807
2019-02-20T04:16:05.000Z,100803
2019-02-20T04:18:05.000Z,100813
2019-02-20T04:20:05.000Z,100811
2019-02-20T04:21:49.000Z,100808
2019-02-20T04:23:05.000Z,100809
2019-02-20T04:25:05.000Z,100811
2019-02-20T04:27:05.000Z,100811
2019-02-20T04:28:05.000Z,100810
2019-02-20T04:29:49.000Z,100814
2019-02-20T04:31:05.000Z,100807
2019-02-20T04:32:05.000Z,100806
2019-02-20T04:34:05.000Z,100807
2019-02-20T04:36:05.000Z,100810
2019-02-20T04:37:05.000Z,100806
2019-02-20T04:38:05.000Z,100814
2019-02-20T04:39:05.000Z,100813
2019-02-20T04:40:49.000Z,100813
2019-02-20T04:42:05.000Z,100810
2019-02-20T04:43:50.000Z,100806
2019-02-20T04:45:05.000Z,100807
2019-02-20T04:46:05.000Z,100804
2019-02-20T04:48:05.000Z,100806
2019-02-20T04:50:05.000Z,100805
2019-02-20T04:51:05.000Z,100807
2019-02-20T04:52:35.000Z,100808
2019-02-20T04:54:05.000Z,100801
2019-02-20T04:56:05.000Z,100803
2019-02-20T04:58:05.000Z,100807
2019-02-20T04:59:05.000Z,100806
2019-02-20T05:01:05.000Z,100805
2019-02-20T05:03:05.000Z,100802
2019-02-20T05:04:50.000Z,100798
2019-02-20T05:06:05.000Z,100796
2019-02-20T05:07:05.000Z,100795
2019-02-20T05:08:35.000Z,100796
2019-02-20T05:10:05.000Z,100807
2019-02-20T05:12:05.000Z,100804
2019-02-20T05:13:05.000Z,100799
2019-02-20T05:15:05.000Z,100803
2019-02-20T05:16:05.000Z,100811
2019-02-20T05:18:05.000Z,100804
2019-02-20T05:19:05.000Z,100802
2019-02-20T05:21:05.000Z,100809
2019-02-20T05:23:05.000Z,100808
2019-02-20T05:25:05.000Z,100815
2019-02-20T05:26:05.000Z,100807
2019-02-20T05:27:50.000Z,100812
2019-02-20T05:29:05.000Z,100809
2019-02-20T05:31:05.000Z,100811
2019-02-20T05:32:05.000Z,100815
2019-02-20T05:34:05.000Z,100811
2019-02-20T05:36:05.000Z,100815
2019-02-20T05:37:50.000Z,100813
2019-02-20T05:39:05.000Z,100809
2019-02-20T05:40:05.000Z,100812
2019-02-20T05:41:50.000Z,100815
2019-02-20T05:43:05.000Z,100819
2019-02-20T05:44:50.000Z,100819
2019-02-20T05:46:05.000Z,100817
2019-02-20T05:48:05.000Z,100820
2019-02-20T05:50:05.000Z,100827
2019-02-20T05:52:05.000Z,100832
2019-02-20T05:53:05.000Z,100827
2019-02-20T05:54:50.000Z,100828
2019-02-20T05:56:05.000Z,100825
2019-02-20T05:57:35.000Z,100822
2019-02-20T05:59:05.000Z,100828
2019-02-20T06:00:05.000Z,100828
2019-02-20T06:02:05.000Z,100822
2019-02-20T06:04:05.000Z,100827
2019-02-20T06:06:05.000Z,100826
2019-02-20T06:07:05.000Z,100818
2019-02-20T06:08:50.000Z,100818
2019-02-20T06:10:05.000Z,100817
2019-02-20T06:11:05.000Z,100823
2019-02-20T06:13:05.000Z,100823
2019-02-20T06:15:05.000Z,100819
2019-02-20T06:17:05.000Z,100816
2019-02-20T06:19:05.000Z,100822
2019-02-20T06:20:05.000Z,100825
2019-02-20T06:21:05.000Z,100829
2019-02-20T06:22:50.000Z,100823
2019-02-20T06:24:05.000Z,100830
2019-02-20T06:26:05.000Z,100829
2019-02-20T06:27:05.000Z,100828
2019-02-20T06:29:05.000Z,100839
2019-02-20T06:30:05.000Z,100840
2019-02-20T06:31:05.000Z,100833
2019-02-20T06:33:05.000Z,100843
2019-02-20T06:35:05.000Z,100840
2019-02-20T06:37:05.000Z,100838
2019-02-20T06:38:05.000Z,100844
2019-02-20T06:39:05.000Z,100841
2019-02-20T06:41:05.000Z,100844
2019-02-20T06:43:05.000Z,100844
2019-02-20T06:44:05.000Z,100845
2019-02-20T06:46:05.000Z,100844
2019-02-20T06:48:05.000Z,100844
2019-02-20T06:50:05.000Z,100849
2019-02-20T06:51:05.000Z,100848
2019-02-20T06:53:05.000Z,100848
2019-02-20T06:54:50.000Z,100847
2019-02-20T06:57:05.000Z,100851
2019-02-20T06:59:05.000Z,100855
2019-02-20T07:01:05.000Z,100855
2019-02-20T07:02:50.000Z,100860
2019-02-20T07:04:05.000Z,100865
2019-02-20T07:05:49.000Z,100868
2019-02-20T07:07:05.000Z,100871
2019-02-20T07:09:05.000Z,100877
2019-02-20T07:10:05.000Z,100879
2019-02-20T07:11:05.000Z,100870
2019-02-20T07:13:05.000Z,100873
2019-02-20T07:14:05.000Z,100876
2019-02-20T07:16:05.000Z,100876
2019-02-20T07:17:05.000Z,100885
2019-02-20T07:18:05.000Z,100878
2019-02-20T07:19:05.000Z,100885
2019-02-20T07:21:05.000Z,100886
2019-02-20T07:23:05.000Z,100883
2019-02-20T07:25:05.000Z,100892
2019-02-20T07:27:05.000Z,100888
2019-02-20T07:28:05.000Z,100891
2019-02-20T07:30:05.000Z,100892
2019-02-20T07:32:05.000Z,100892
2019-02-20T07:33:50.000Z,100893
2019-02-20T07:35:05.000Z,100898
2019-02-20T07:37:05.000Z,100901
2019-02-20T07:39:05.000Z,100903
2019-02-20T07:41:05.000Z,100899
2019-02-20T07:43:05.000Z,100908
2019-02-20T07:44:49.000Z,100901
2019-02-20T07:46:05.000Z,100910
2019-02-20T07:47:05.000Z,100908
2019-02-20T07:49:05.000Z,100909
2019-02-20T07:50:05.000Z,100917
2019-02-20T07:51:05.000Z,100911
2019-02-20T07:52:49.000Z,100918
2019-02-20T07:54:05.000Z,100918
2019-02-20T07:56:05.000Z,100921
2019-02-20T07:57:05.000Z,100923
2019-02-20T07:58:05.000Z,100927
2019-02-20T07:59:05.000Z,100925
2019-02-20T08:01:05.000Z,100924
2019-02-20T08:03:05.000Z,100922
2019-02-20T08:04:05.000Z,100927
2019-02-20T08:06:05.000Z,100930
2019-02-20T08:08:05.000Z,100931
2019-02-20T08:10:05.000Z,100942
2019-02-20T08:12:05.000Z,100939
2019-02-20T08:13:05.000Z,100942
2019-02-20T08:15:05.000Z,100942
2019-02-20T08:16:05.000Z,100947
2019-02-20T08:18:05.000Z,100951
2019-02-20T08:20:05.000Z,100950
2019-02-20T08:21:50.000Z,100955
2019-02-20T08:23:05.000Z,100959
2019-02-20T08:25:05.000Z,100959
2019-02-20T08:26:35.000Z,100958
2019-02-20T08:28:05.000Z,100956
2019-02-20T08:29:05.000Z,100963
2019-02-20T08:30:50.000Z,100970
2019-02-20T08:32:05.000Z,100969
2019-02-20T08:33:05.000Z,100971
2019-02-20T08:35:05.000Z,100966
2019-02-20T08:36:05.000Z,100970
2019-02-20T08:37:50.000Z,100974
2019-02-20T08:39:05.000Z,100970
2019-02-20T08:40:05.000Z,100967
2019-02-20T08:41:50.000Z,100970
2019-02-20T08:43:05.000Z,100970
2019-02-20T08:45:05.000Z,100972
2019-02-20T08:47:05.000Z,100972
2019-02-20T08:48:50.000Z,100974
2019-02-20T08:50:05.000Z,100972
2019-02-20T08:52:05.000Z,100975
2019-02-20T08:53:05.000Z,100972
2019-02-20T08:55:05.000Z,100976
2019-02-20T08:57:05.000Z,100973
2019-02-20T08:58:05.000Z,100977
2019-02-20T08:59:50.000Z,100973
2019-02-20T09:02:05.000Z,100980
2019-02-20T09:04:05.000Z,100973
2019-02-20T09:06:05.000Z,100973
2019-02-20T09:08:05.000Z,100978
2019-02-20T09:10:05.000Z,100967
2019-02-20T09:12:05.000Z,100974
2019-02-20T09:13:05.000Z,100979
2019-02-20T09:15:05.000Z,100982
2019-02-20T09:17:05.000Z,100981
2019-02-20T09:19:05.000Z,100989
2019-02-20T09:20:05.000Z,100989
2019-02-20T09:21:05.000Z,100987
2019-02-20T09:23:05.000Z,100990
2019-02-20T09:25:05.000Z,100979
2019-02-20T09:26:50.000Z,100984
2019-02-20T09:28:05.000Z,100997
2019-02-20T09:30:05.000Z,100993
2019-02-20T09:32:05.000Z,100990
2019-02-20T09:33:05.000Z,100994
2019-02-20T09:35:05.000Z,100983
2019-02-20T09:37:05.000Z,100985
2019-02-20T09:39:05.000Z,100987
2019-02-20T09:40:35.000Z,100986
2019-02-20T09:42:05.000Z,100987
2019-02-20T09:43:05.000Z,100995
2019-02-20T09:44:05.000Z,100981
2019-02-20T09:45:05.000Z,100986
2019-02-20T09:47:05.000Z,100987
2019-02-20T09:49:05.000Z,100988
2019-02-20T09:50:05.000Z,100989
2019-02-20T09:51:05.000Z,100992
2019-02-20T09:52:50.000Z,100978
2019-02-20T09:55:05.000Z,100983
2019-02-20T09:56:50.000Z,100990
2019-02-20T09:57:50.000Z,100989
2019-02-20T09:59:05.000Z,100980
2019-02-20T10:00:50.000Z,100988
2019-02-20T10:02:04.000Z,100984
2019-02-20T10:04:04.000Z,100981
2019-02-20T10:05:34.000Z,100993
2019-02-20T10:07:04.000Z,100995
2019-02-20T10:08:04.000Z,100990
2019-02-20T10:09:34.000Z,100989
2019-02-20T10:11:04.000Z,100989
2019-02-20T10:13:04.000Z,100993
2019-02-20T10:15:04.000Z,100995
2019-02-20T10:16:04.000Z,100998
2019-02-20T10:17:49.000Z,101000
2019-02-20T10:19:04.000Z,101002
2019-02-20T10:21:04.000Z,100993
2019-02-20T10:23:04.000Z,101001
2019-02-20T10:25:04.000Z,100993
2019-02-20T10:26:34.000Z,100994
2019-02-20T10:28:04.000Z,100992
2019-02-20T10:29:04.000Z,100994
2019-02-20T10:31:04.000Z,100998
2019-02-20T10:33:04.000Z,101003
2019-02-20T10:34:04.000Z,101004
2019-02-20T10:36:04.000Z,101003
2019-02-20T10:37:49.000Z,101006
2019-02-20T10:40:04.000Z,101005
2019-02-20T10:42:04.000Z,101011
2019-02-20T10:44:04.000Z,101014
2019-02-20T10:46:04.000Z,101016
2019-02-20T10:48:05.000Z,101016
2019-02-20T10:50:04.000Z,101016
2019-02-20T10:51:04.000Z,101018
2019-02-20T10:52:04.000Z,101016
2019-02-20T10:54:04.000Z,101015
2019-02-20T10:55:49.000Z,101026
2019-02-20T10:57:04.000Z,101019
2019-02-20T10:59:04.000Z,101012
2019-02-20T11:00:04.000Z,101012
2019-02-20T11:02:04.000Z,101023
2019-02-20T11:04:04.000Z,101021
2019-02-20T11:06:05.000Z,101016
2019-02-20T11:07:05.000Z,101019
2019-02-20T11:09:05.000Z,101010
2019-02-20T11:10:50.000Z,101015
2019-02-20T11:12:05.000Z,101016
2019-02-20T11:13:50.000Z,101012
2019-02-20T11:15:05.000Z,101016
2019-02-20T11:16:05.000Z,101013
2019-02-20T11:17:35.000Z,101008
2019-02-20T11:20:05.000Z,101014
2019-02-20T11:21:05.000Z,101017
2019-02-20T11:23:05.000Z,101005
2019-02-20T11:25:05.000Z,101010
2019-02-20T11:26:05.000Z,100999
2019-02-20T11:28:05.000Z,101008
2019-02-20T11:29:05.000Z,101006
2019-02-20T11:30:05.000Z,101009
2019-02-20T11:31:50.000Z,101016
2019-02-20T11:32:50.000Z,101012
2019-02-20T11:35:05.000Z,101011
2019-02-20T11:37:05.000Z,101009
2019-02-20T11:38:05.000Z,101007
2019-02-20T11:39:05.000Z,101000
2019-02-20T11:40:50.000Z,101011
2019-02-20T11:42:05.000Z,101016
2019-02-20T11:44:05.000Z,101010
2019-02-20T11:46:05.000Z,101005
2019-02-20T11:48:05.000Z,101009
2019-02-20T11:50:05.000Z,101004
2019-02-20T11:52:05.000Z,100999
2019-02-20T11:53:52.000Z,100998
2019-02-20T11:55:05.000Z,101008
2019-02-20T11:56:05.000Z,101004
2019-02-20T11:58:05.000Z,101019
2019-02-20T11:59:50.000Z,101010
2019-02-20T12:00:50.000Z,101008
2019-02-20T12:02:35.000Z,101004
2019-02-20T12:04:05.000Z,101002
2019-02-20T12:05:05.000Z,101009
2019-02-20T12:06:05.000Z,101009
2019-02-20T12:08:05.000Z,101010
2019-02-20T12:09:50.000Z,101009
2019-02-20T12:12:05.000Z,101015
2019-02-20T12:13:05.000Z,101008
2019-02-20T12:15:05.000Z,101018
2019-02-20T12:17:05.000Z,101016
2019-02-20T12:18:05.000Z,101014
2019-02-20T12:20:05.000Z,101008
2019-02-20T12:22:05.000Z,101014
2019-02-20T12:23:35.000Z,101006
2019-02-20T12:25:05.000Z,101009
2019-02-20T12:27:05.000Z,101006
2019-02-20T12:28:05.000Z,101002
2019-02-20T12:30:05.000Z,101002
2019-02-20T12:31:50.000Z,101006
2019-02-20T12:33:05.000Z,101003
2019-02-20T12:34:50.000Z,101016
2019-02-20T12:36:05.000Z,101006
2019-02-20T12:37:05.000Z,101013
2019-02-20T12:38:35.000Z,101008
2019-02-20T12:40:05.000Z,101009
2019-02-20T12:41:50.000Z,101016
2019-02-20T12:43:05.000Z,101018
2019-02-20T12:44:50.000Z,101019
2019-02-20T12:46:05.000Z,101011
2019-02-20T12:48:05.000Z,101006
2019-02-20T12:49:50.000Z,101010
2019-02-20T12:51:50.000Z,101008
2019-02-20T12:53:05.000Z,101001
2019-02-20T12:55:05.000Z,101010
2019-02-20T12:56:05.000Z,101003
2019-02-20T12:58:05.000Z,101005
2019-02-20T12:59:05.000Z,101005
2019-02-20T13:01:05.000Z,101004
2019-02-20T13:02:05.000Z,100996
2019-02-20T13:03:50.000Z,100998
2019-02-20T13:05:50.000Z,100995
2019-02-20T13:06:50.000Z,100997
2019-02-20T13:08:50.000Z,101000
2019-02-20T13:10:05.000Z,101001
2019-02-20T13:12:05.000Z,101006
2019-02-20T13:17:35.000Z,100996
2019-02-20T13:54:04.000Z,100988
2019-02-20T13:55:50.000Z,100983
2019-02-20T13:57:50.000Z,100978
2019-02-20T13:59:50.000Z,100981
2019-02-20T14:01:35.000Z,100982
2019-02-20T14:02:50.000Z,100987
2019-02-20T14:04:35.000Z,100990
2019-02-20T14:05:50.000Z,100997
2019-02-20T14:07:50.000Z,100994
2019-02-20T14:08:50.000Z,100991
2019-02-20T14:09:50.000Z,100984
2019-02-20T14:11:50.000Z,100993
2019-02-20T14:13:50.000Z,100991
2019-02-20T14:14:50.000Z,100990
2019-02-20T14:16:50.000Z,100984
2019-02-20T14:18:35.000Z,100973
2019-02-20T14:19:50.000Z,100984
2019-02-20T14:21:20.000Z,100982
2019-02-20T14:22:50.000Z,100981
2019-02-20T14:24:35.000Z,100974
2019-02-20T14:25:35.000Z,100976
2019-02-20T14:26:50.000Z,100980
2019-02-20T14:27:50.000Z,100979
2019-02-20T14:29:20.000Z,100976
2019-02-20T14:30:35.000Z,100964
2019-02-20T14:32:50.000Z,100962
2019-02-20T14:34:50.000Z,100975
2019-02-20T14:35:50.000Z,100972
2019-02-20T14:37:50.000Z,100969
2019-02-20T14:39:35.000Z,100972
2019-02-20T14:40:50.000Z,100988
2019-02-20T14:42:35.000Z,100972
2019-02-20T14:44:21.000Z,100967
2019-02-20T14:45:35.000Z,100973
2019-02-20T14:47:50.000Z,100977
2019-02-20T14:49:50.000Z,100975
2019-02-20T14:51:20.000Z,100971
2019-02-20T14:52:50.000Z,100972
2019-02-20T14:54:50.000Z,100978
2019-02-20T14:56:35.000Z,100975
2019-02-20T14:57:50.000Z,100976
2019-02-20T14:59:20.000Z,100973
2019-02-20T15:00:50.000Z,100979
2019-02-20T15:01:50.000Z,100977
2019-02-20T15:03:35.000Z,100968
2019-02-20T15:04:35.000Z,100971
2019-02-20T15:05:50.000Z,100974
2019-02-20T15:07:50.000Z,100974
2019-02-20T15:09:35.000Z,100976
2019-02-20T15:10:50.000Z,100974
2019-02-20T15:12:50.000Z,100977
2019-02-20T15:14:20.000Z,100976
2019-02-20T15:15:50.000Z,100977
2019-02-20T15:17:35.000Z,100976
2019-02-20T15:18:50.000Z,100984
2019-02-20T15:20:50.000Z,100980
2019-02-20T15:21:50.000Z,100983
2019-02-20T15:23:35.000Z,100995
2019-02-20T15:25:35.000Z,100978
2019-02-20T15:26:50.000Z,100989
2019-02-20T15:28:50.000Z,100982
2019-02-20T15:30:50.000Z,100981
2019-02-20T15:32:50.000Z,100983
2019-02-20T15:34:35.000Z,100989
2019-02-20T15:35:50.000Z,100990
2019-02-20T15:37:20.000Z,100986
2019-02-20T15:38:50.000Z,100993
2019-02-20T15:39:50.000Z,100989
2019-02-20T15:41:19.000Z,100984
2019-02-20T15:42:50.000Z,100986
2019-02-20T15:44:20.000Z,100990
2019-02-20T15:45:50.000Z,100996
2019-02-20T15:47:19.000Z,100994
2019-02-20T15:48:20.000Z,100989
2019-02-20T15:49:50.000Z,100989
2019-02-20T15:50:50.000Z,100995
2019-02-20T15:52:20.000Z,100996
2019-02-20T15:53:35.000Z,100987
2019-02-20T15:54:35.000Z,100995
2019-02-20T15:56:35.000Z,100992
2019-02-20T15:58:50.000Z,100995
2019-02-20T16:00:35.000Z,100992
2019-02-20T16:01:35.000Z,100995
2019-02-20T16:03:50.000Z,100996
2019-02-20T16:05:50.000Z,100995
2019-02-20T16:07:19.000Z,100998
2019-02-20T16:08:50.000Z,101001
2019-02-20T16:09:50.000Z,101001
2019-02-20T16:11:50.000Z,101002
2019-02-20T16:13:50.000Z,101000
2019-02-20T16:15:50.000Z,101008
2019-02-20T16:17:21.000Z,101010
2019-02-20T16:18:50.000Z,101003
2019-02-20T16:20:50.000Z,101001
2019-02-20T16:21:50.000Z,101004
2019-02-20T16:23:51.000Z,101003
2019-02-20T16:24:51.000Z,101003
2019-02-20T16:26:35.000Z,101010
2019-02-20T16:27:51.000Z,101008
2019-02-20T16:28:51.000Z,101010
2019-02-20T16:30:51.000Z,101018
2019-02-20T16:32:51.000Z,101013
2019-02-20T16:34:51.000Z,101015
2019-02-20T16:35:51.000Z,101020
2019-02-20T16:37:21.000Z,101015
2019-02-20T16:38:50.000Z,101018
2019-02-20T16:40:35.000Z,101020
2019-02-20T16:41:51.000Z,101024
2019-02-20T16:42:51.000Z,101025
2019-02-20T16:44:51.000Z,101021
2019-02-20T16:46:36.000Z,101020
2019-02-20T16:48:51.000Z,101023
2019-02-20T16:50:51.000Z,101029
2019-02-20T16:52:21.000Z,101030
2019-02-20T16:53:50.000Z,101032
2019-02-20T16:55:22.000Z,101036
2019-02-20T16:56:50.000Z,101039
2019-02-20T16:57:51.000Z,101037
2019-02-20T16:59:51.000Z,101043
2019-02-20T17:01:35.000Z,101040
2019-02-20T17:02:50.000Z,101045
2019-02-20T17:03:51.000Z,101041
2019-02-20T17:05:51.000Z,101050
2019-02-20T17:07:20.000Z,101051
2019-02-20T17:08:50.000Z,101049
2019-02-20T17:10:35.000Z,101050
2019-02-20T17:11:51.000Z,101045
2019-02-20T17:13:51.000Z,101052
2019-02-20T17:15:21.000Z,101048
2019-02-20T17:16:50.000Z,101052
2019-02-20T17:18:51.000Z,101050
2019-02-20T17:20:51.000Z,101052
2019-02-20T17:21:51.000Z,101053
2019-02-20T17:23:35.000Z,101061
2019-02-20T17:24:36.000Z,101060
2019-02-20T17:26:50.000Z,101065
2019-02-20T17:27:50.000Z,101062
2019-02-20T17:29:50.000Z,101059
2019-02-20T17:31:35.000Z,101067
2019-02-20T17:32:35.000Z,101065
2019-02-20T17:34:50.000Z,101064
2019-02-20T17:36:50.000Z,101067
2019-02-20T17:38:20.000Z,101071
2019-02-20T17:39:50.000Z,101069
2019-02-20T17:40:50.000Z,101070
2019-02-20T17:42:50.000Z,101076
2019-02-20T17:44:50.000Z,101080
2019-02-20T17:46:35.000Z,101075
2019-02-20T17:47:35.000Z,101082
2019-02-20T17:49:50.000Z,101088
2019-02-20T17:51:50.000Z,101082
2019-02-20T17:53:20.000Z,101084
2019-02-20T17:54:50.000Z,101080
2019-02-20T17:56:35.000Z,101085
2019-02-20T17:57:50.000Z,101082
2019-02-20T17:59:50.000Z,101084
2019-02-20T18:01:35.000Z,101085
2019-02-20T18:02:50.000Z,101089
2019-02-20T18:04:50.000Z,101091
2019-02-20T18:05:50.000Z,101084
2019-02-20T18:06:50.000Z,101085
2019-02-20T18:08:35.000Z,101089
2019-02-20T18:09:50.000Z,101085
2019-02-20T18:11:35.000Z,101091
2019-02-20T18:12:50.000Z,101090
2019-02-20T18:13:50.000Z,101094
2019-02-20T18:15:50.000Z,101094
2019-02-20T18:17:35.000Z,101096
2019-02-20T18:18:50.000Z,101098
2019-02-20T18:20:50.000Z,101102
2019-02-20T18:21:50.000Z,101096
2019-02-20T18:23:50.000Z,101098
2019-02-20T18:25:50.000Z,101105
2019-02-20T18:26:50.000Z,101098
2019-02-20T18:28:20.000Z,101102
2019-02-20T18:29:50.000Z,101100
2019-02-20T18:30:50.000Z,101100
2019-02-20T18:32:35.000Z,101097
2019-02-20T18:33:50.000Z,101101
2019-02-20T18:35:50.000Z,101102
2019-02-20T18:37:20.000Z,101098
2019-02-20T18:38:50.000Z,101102
2019-02-20T18:39:50.000Z,101101
2019-02-20T18:41:50.000Z,101100
2019-02-20T18:43:50.000Z,101104
2019-02-20T18:45:50.000Z,101101
2019-02-20T18:47:50.000Z,101102
2019-02-20T18:49:20.000Z,101097
2019-02-20T18:50:50.000Z,101105
2019-02-20T18:52:35.000Z,101103
2019-02-20T18:53:50.000Z,101103
2019-02-20T18:55:50.000Z,101100
2019-02-20T18:57:50.000Z,101102
2019-02-20T18:58:50.000Z,101105
2019-02-20T19:00:35.000Z,101104
2019-02-20T19:01:50.000Z,101100
2019-02-20T19:03:50.000Z,101101
2019-02-20T19:05:35.000Z,101107
2019-02-20T19:06:50.000Z,101104
2019-02-20T19:08:35.000Z,101107
2019-02-20T19:10:50.000Z,101109
2019-02-20T19:11:50.000Z,101105
2019-02-20T19:13:35.000Z,101106
2019-02-20T19:14:50.000Z,101112
2019-02-20T19:16:50.000Z,101106
2019-02-20T19:18:50.000Z,101111
2019-02-20T19:20:50.000Z,101121
2019-02-20T19:21:50.000Z,101114
2019-02-20T19:22:50.000Z,101112
2019-02-20T19:24:50.000Z,101113
2019-02-20T19:26:50.000Z,101113
2019-02-20T19:28:35.000Z,101115
2019-02-20T19:30:50.000Z,101111
2019-02-20T19:32:20.000Z,101115
2019-02-20T19:33:50.000Z,101113
2019-02-20T19:35:35.000Z,101109
2019-02-20T19:36:50.000Z,101104
2019-02-20T19:38:35.000Z,101111
2019-02-20T19:39:50.000Z,101111
2019-02-20T19:41:35.000Z,101111
2019-02-20T19:42:50.000Z,101106
2019-02-20T19:44:35.000Z,101110
2019-02-20T19:45:50.000Z,101110
2019-02-20T19:47:35.000Z,101111
2019-02-20T19:49:50.000Z,101109
2019-02-20T19:51:21.000Z,101111
2019-02-20T19:52:50.000Z,101113
2019-02-20T19:54:50.000Z,101115
2019-02-20T19:56:20.000Z,101107
2019-02-20T19:57:50.000Z,101115
2019-02-20T19:59:35.000Z,101110
2019-02-20T20:00:50.000Z,101114
2019-02-20T20:02:20.000Z,101114
2019-02-20T20:03:50.000Z,101119
2019-02-20T20:04:50.000Z,101119
2019-02-20T20:06:35.000Z,101107
2019-02-20T20:07:50.000Z,101116
2019-02-20T20:09:35.000Z,101114
2019-02-20T20:11:35.000Z,101116
2019-02-20T20:13:50.000Z,101115
2019-02-20T20:15:50.000Z,101119
2019-02-20T20:16:50.000Z,101120
2019-02-20T20:18:35.000Z,101117
2019-02-20T20:19:50.000Z,101113
2019-02-20T20:21:35.000Z,101118
2019-02-20T20:22:50.000Z,101105
2019-02-20T20:24:20.000Z,101108
2019-02-20T20:25:50.000Z,101114
2019-02-20T20:27:35.000Z,101112
2019-02-20T20:28:35.000Z,101110
2019-02-20T20:29:50.000Z,101113
2019-02-20T20:30:50.000Z,101109
2019-02-20T20:32:50.000Z,101107
2019-02-20T20:33:50.000Z,101107
2019-02-20T20:35:50.000Z,101107
2019-02-20T20:37:50.000Z,101105
2019-02-20T20:38:50.000Z,101103
2019-02-20T20:40:35.000Z,101100
2019-02-20T20:41:51.000Z,101101